sensor_id;sensor_type;location;lat;lon;timestamp;P1;durP1;ratioP1;P2;durP2;ratioP2
40847;SDS011;26570;50.962;5.340;2023-08-31T00:02:12;1.30;;;0.50;;
40847;SDS011;26570;50.962;5.340;2023-08-31T00:04:58;2.77;;;0.33;;
40847;SDS011;26570;50.962;5.340;2023-08-31T00:07:44;1.20;;;0.50;;
40847;SDS011;26570;50.962;5.340;2023-08-31T00:10:30;2.33;;;0.40;;
40847;SDS011;26570;50.962;5.340;2023-08-31T00:13:17;5.53;;;0.60;;
40847;SDS011;26570;50.962;5.340;2023-08-31T00:16:03;2.57;;;0.60;;
40847;SDS011;26570;50.962;5.340;2023-08-31T00:18:50;1.77;;;0.50;;
40847;SDS011;26570;50.962;5.340;2023-08-31T00:21:36;2.67;;;0.60;;
40847;SDS011;26570;50.962;5.340;2023-08-31T00:24:22;2.43;;;0.73;;
40847;SDS011;26570;50.962;5.340;2023-08-31T00:27:12;2.00;;;0.60;;
40847;SDS011;26570;50.962;5.340;2023-08-31T00:29:59;2.73;;;0.63;;
40847;SDS011;26570;50.962;5.340;2023-08-31T00:32:46;3.63;;;0.50;;
40847;SDS011;26570;50.962;5.340;2023-08-31T00:35:54;1.20;;;0.50;;
40847;SDS011;26570;50.962;5.340;2023-08-31T00:38:41;1.37;;;0.50;;
40847;SDS011;26570;50.962;5.340;2023-08-31T00:41:28;1.50;;;0.50;;
40847;SDS011;26570;50.962;5.340;2023-08-31T00:44:14;2.20;;;0.40;;
40847;SDS011;26570;50.962;5.340;2023-08-31T00:47:01;2.53;;;0.50;;
40847;SDS011;26570;50.962;5.340;2023-08-31T00:49:47;0.90;;;0.40;;
40847;SDS011;26570;50.962;5.340;2023-08-31T00:52:33;1.90;;;0.60;;
40847;SDS011;26570;50.962;5.340;2023-08-31T00:55:21;1.13;;;0.43;;
40847;SDS011;26570;50.962;5.340;2023-08-31T00:58:07;1.17;;;0.40;;
40847;SDS011;26570;50.962;5.340;2023-08-31T01:00:57;1.90;;;0.40;;
40847;SDS011;26570;50.962;5.340;2023-08-31T01:04:06;1.43;;;0.97;;
40847;SDS011;26570;50.962;5.340;2023-08-31T01:13:00;3.00;;;0.50;;
40847;SDS011;26570;50.962;5.340;2023-08-31T01:15:56;2.73;;;0.53;;
40847;SDS011;26570;50.962;5.340;2023-08-31T01:19:09;2.00;;;0.40;;
40847;SDS011;26570;50.962;5.340;2023-08-31T01:25:35;4.00;;;0.47;;
40847;SDS011;26570;50.962;5.340;2023-08-31T01:28:25;7.07;;;1.10;;
40847;SDS011;26570;50.962;5.340;2023-08-31T01:31:11;2.87;;;0.30;;
40847;SDS011;26570;50.962;5.340;2023-08-31T01:33:57;1.90;;;0.50;;
40847;SDS011;26570;50.962;5.340;2023-08-31T01:36:44;3.00;;;0.40;;
40847;SDS011;26570;50.962;5.340;2023-08-31T01:42:28;1.27;;;0.40;;
40847;SDS011;26570;50.962;5.340;2023-08-31T01:45:37;1.13;;;0.43;;
40847;SDS011;26570;50.962;5.340;2023-08-31T01:48:24;1.90;;;0.50;;
40847;SDS011;26570;50.962;5.340;2023-08-31T01:51:10;2.20;;;0.40;;
40847;SDS011;26570;50.962;5.340;2023-08-31T01:53:57;2.73;;;0.50;;
40847;SDS011;26570;50.962;5.340;2023-08-31T01:56:43;1.00;;;0.50;;
40847;SDS011;26570;50.962;5.340;2023-08-31T01:59:29;1.20;;;0.47;;
40847;SDS011;26570;50.962;5.340;2023-08-31T02:02:14;1.90;;;0.50;;
40847;SDS011;26570;50.962;5.340;2023-08-31T02:05:01;2.03;;;0.50;;
40847;SDS011;26570;50.962;5.340;2023-08-31T02:07:48;0.90;;;0.50;;
40847;SDS011;26570;50.962;5.340;2023-08-31T02:10:34;3.07;;;0.40;;
40847;SDS011;26570;50.962;5.340;2023-08-31T02:13:20;1.93;;;0.50;;
40847;SDS011;26570;50.962;5.340;2023-08-31T02:16:05;2.43;;;0.50;;
40847;SDS011;26570;50.962;5.340;2023-08-31T02:18:51;5.73;;;0.53;;
40847;SDS011;26570;50.962;5.340;2023-08-31T02:21:37;1.50;;;0.60;;
40847;SDS011;26570;50.962;5.340;2023-08-31T02:24:26;2.53;;;0.70;;
40847;SDS011;26570;50.962;5.340;2023-08-31T02:27:12;2.53;;;0.70;;
40847;SDS011;26570;50.962;5.340;2023-08-31T02:29:57;1.60;;;0.80;;
40847;SDS011;26570;50.962;5.340;2023-08-31T02:32:42;2.23;;;0.80;;
40847;SDS011;26570;50.962;5.340;2023-08-31T02:35:28;3.80;;;0.90;;
40847;SDS011;26570;50.962;5.340;2023-08-31T02:38:14;2.43;;;0.90;;
40847;SDS011;26570;50.962;5.340;2023-08-31T02:41:01;3.30;;;1.20;;
40847;SDS011;26570;50.962;5.340;2023-08-31T02:43:46;5.13;;;1.20;;
40847;SDS011;26570;50.962;5.340;2023-08-31T02:46:34;2.03;;;1.33;;
40847;SDS011;26570;50.962;5.340;2023-08-31T02:49:20;7.53;;;2.70;;
40847;SDS011;26570;50.962;5.340;2023-08-31T02:52:08;6.20;;;1.90;;
40847;SDS011;26570;50.962;5.340;2023-08-31T02:54:54;5.53;;;2.30;;
40847;SDS011;26570;50.962;5.340;2023-08-31T02:57:40;4.63;;;2.80;;
40847;SDS011;26570;50.962;5.340;2023-08-31T03:00:25;8.43;;;2.60;;
40847;SDS011;26570;50.962;5.340;2023-08-31T03:03:11;3.23;;;2.20;;
40847;SDS011;26570;50.962;5.340;2023-08-31T03:05:57;3.20;;;2.10;;
40847;SDS011;26570;50.962;5.340;2023-08-31T03:08:43;6.63;;;2.40;;
40847;SDS011;26570;50.962;5.340;2023-08-31T03:11:30;4.03;;;2.20;;
40847;SDS011;26570;50.962;5.340;2023-08-31T03:14:15;3.80;;;2.20;;
40847;SDS011;26570;50.962;5.340;2023-08-31T03:17:01;6.30;;;2.40;;
40847;SDS011;26570;50.962;5.340;2023-08-31T03:19:47;5.23;;;2.60;;
40847;SDS011;26570;50.962;5.340;2023-08-31T03:22:33;6.17;;;2.97;;
40847;SDS011;26570;50.962;5.340;2023-08-31T03:25:42;6.70;;;3.07;;
40847;SDS011;26570;50.962;5.340;2023-08-31T03:28:27;5.27;;;3.37;;
40847;SDS011;26570;50.962;5.340;2023-08-31T03:31:12;5.30;;;3.50;;
40847;SDS011;26570;50.962;5.340;2023-08-31T03:33:58;4.70;;;3.37;;
40847;SDS011;26570;50.962;5.340;2023-08-31T03:36:43;3.77;;;3.07;;
40847;SDS011;26570;50.962;5.340;2023-08-31T03:39:51;8.53;;;3.40;;
40847;SDS011;26570;50.962;5.340;2023-08-31T03:42:37;5.63;;;4.53;;
40847;SDS011;26570;50.962;5.340;2023-08-31T03:45:23;6.93;;;3.80;;
40847;SDS011;26570;50.962;5.340;2023-08-31T03:48:08;7.97;;;3.87;;
40847;SDS011;26570;50.962;5.340;2023-08-31T03:50:54;9.10;;;4.23;;
40847;SDS011;26570;50.962;5.340;2023-08-31T03:53:40;8.03;;;4.73;;
40847;SDS011;26570;50.962;5.340;2023-08-31T03:56:28;13.47;;;5.20;;
40847;SDS011;26570;50.962;5.340;2023-08-31T03:59:14;7.57;;;5.40;;
40847;SDS011;26570;50.962;5.340;2023-08-31T04:01:59;10.43;;;6.10;;
40847;SDS011;26570;50.962;5.340;2023-08-31T04:04:45;6.80;;;5.40;;
40847;SDS011;26570;50.962;5.340;2023-08-31T04:07:30;13.10;;;7.27;;
40847;SDS011;26570;50.962;5.340;2023-08-31T04:10:18;12.00;;;6.03;;
40847;SDS011;26570;50.962;5.340;2023-08-31T04:13:03;8.20;;;6.53;;
40847;SDS011;26570;50.962;5.340;2023-08-31T04:15:49;9.80;;;6.43;;
40847;SDS011;26570;50.962;5.340;2023-08-31T04:18:36;10.27;;;6.70;;
40847;SDS011;26570;50.962;5.340;2023-08-31T04:21:22;9.80;;;6.17;;
40847;SDS011;26570;50.962;5.340;2023-08-31T04:24:08;19.00;;;6.10;;
40847;SDS011;26570;50.962;5.340;2023-08-31T04:26:53;14.43;;;6.73;;
40847;SDS011;26570;50.962;5.340;2023-08-31T04:29:39;12.00;;;6.37;;
40847;SDS011;26570;50.962;5.340;2023-08-31T04:32:25;9.63;;;6.07;;
40847;SDS011;26570;50.962;5.340;2023-08-31T04:35:33;10.53;;;6.00;;
40847;SDS011;26570;50.962;5.340;2023-08-31T04:38:19;13.67;;;6.50;;
40847;SDS011;26570;50.962;5.340;2023-08-31T04:41:04;13.67;;;6.13;;
40847;SDS011;26570;50.962;5.340;2023-08-31T04:43:50;14.87;;;6.50;;
40847;SDS011;26570;50.962;5.340;2023-08-31T04:46:36;11.03;;;6.27;;
40847;SDS011;26570;50.962;5.340;2023-08-31T04:49:22;9.63;;;6.73;;
40847;SDS011;26570;50.962;5.340;2023-08-31T04:52:08;13.60;;;6.10;;
40847;SDS011;26570;50.962;5.340;2023-08-31T04:54:54;11.30;;;6.23;;
40847;SDS011;26570;50.962;5.340;2023-08-31T04:57:40;14.33;;;5.83;;
40847;SDS011;26570;50.962;5.340;2023-08-31T05:00:25;12.57;;;6.30;;
40847;SDS011;26570;50.962;5.340;2023-08-31T05:03:12;13.63;;;5.83;;
40847;SDS011;26570;50.962;5.340;2023-08-31T05:05:58;12.17;;;6.17;;
40847;SDS011;26570;50.962;5.340;2023-08-31T05:08:43;10.13;;;5.70;;
40847;SDS011;26570;50.962;5.340;2023-08-31T05:11:29;10.60;;;5.23;;
40847;SDS011;26570;50.962;5.340;2023-08-31T05:14:15;6.87;;;4.63;;
40847;SDS011;26570;50.962;5.340;2023-08-31T05:17:00;10.80;;;4.60;;
40847;SDS011;26570;50.962;5.340;2023-08-31T05:19:52;9.43;;;3.73;;
40847;SDS011;26570;50.962;5.340;2023-08-31T05:22:37;8.80;;;3.87;;
40847;SDS011;26570;50.962;5.340;2023-08-31T05:25:22;9.33;;;4.37;;
40847;SDS011;26570;50.962;5.340;2023-08-31T05:28:08;10.10;;;3.83;;
40847;SDS011;26570;50.962;5.340;2023-08-31T05:34:00;6.67;;;3.73;;
40847;SDS011;26570;50.962;5.340;2023-08-31T05:37:08;15.90;;;3.80;;
40847;SDS011;26570;50.962;5.340;2023-08-31T05:39:54;12.83;;;4.20;;
40847;SDS011;26570;50.962;5.340;2023-08-31T05:42:39;5.57;;;3.70;;
40847;SDS011;26570;50.962;5.340;2023-08-31T05:45:24;11.00;;;3.47;;
40847;SDS011;26570;50.962;5.340;2023-08-31T05:48:10;12.67;;;3.97;;
40847;SDS011;26570;50.962;5.340;2023-08-31T05:50:55;7.17;;;3.43;;
40847;SDS011;26570;50.962;5.340;2023-08-31T05:53:41;13.87;;;3.90;;
40847;SDS011;26570;50.962;5.340;2023-08-31T05:56:27;9.73;;;3.70;;
40847;SDS011;26570;50.962;5.340;2023-08-31T05:59:13;7.77;;;4.13;;
40847;SDS011;26570;50.962;5.340;2023-08-31T06:01:58;8.77;;;2.90;;
40847;SDS011;26570;50.962;5.340;2023-08-31T06:04:44;8.53;;;3.30;;
40847;SDS011;26570;50.962;5.340;2023-08-31T06:07:29;5.90;;;2.50;;
40847;SDS011;26570;50.962;5.340;2023-08-31T06:10:15;9.20;;;2.20;;
40847;SDS011;26570;50.962;5.340;2023-08-31T06:13:01;4.80;;;2.67;;
40847;SDS011;26570;50.962;5.340;2023-08-31T06:15:47;9.63;;;2.20;;
40847;SDS011;26570;50.962;5.340;2023-08-31T06:18:35;5.53;;;2.13;;
40847;SDS011;26570;50.962;5.340;2023-08-31T06:21:21;7.47;;;1.70;;
40847;SDS011;26570;50.962;5.340;2023-08-31T06:24:07;5.10;;;2.03;;
40847;SDS011;26570;50.962;5.340;2023-08-31T06:26:57;9.57;;;3.33;;
40847;SDS011;26570;50.962;5.340;2023-08-31T06:29:42;7.13;;;1.40;;
40847;SDS011;26570;50.962;5.340;2023-08-31T06:32:27;6.17;;;1.60;;
40847;SDS011;26570;50.962;5.340;2023-08-31T06:35:13;3.27;;;0.90;;
40847;SDS011;26570;50.962;5.340;2023-08-31T06:38:02;2.47;;;0.80;;
40847;SDS011;26570;50.962;5.340;2023-08-31T06:40:48;3.97;;;0.90;;
40847;SDS011;26570;50.962;5.340;2023-08-31T06:43:33;4.47;;;0.70;;
40847;SDS011;26570;50.962;5.340;2023-08-31T06:46:40;8.20;;;0.60;;
40847;SDS011;26570;50.962;5.340;2023-08-31T06:49:25;3.80;;;0.50;;
40847;SDS011;26570;50.962;5.340;2023-08-31T06:52:11;4.15;;;0.40;;
40847;SDS011;26570;50.962;5.340;2023-08-31T06:54:56;2.05;;;0.40;;
40847;SDS011;26570;50.962;5.340;2023-08-31T06:57:41;3.53;;;0.30;;
40847;SDS011;26570;50.962;5.340;2023-08-31T07:00:27;3.33;;;0.40;;
40847;SDS011;26570;50.962;5.340;2023-08-31T07:03:12;3.70;;;0.40;;
40847;SDS011;26570;50.962;5.340;2023-08-31T07:05:58;3.90;;;0.60;;
40847;SDS011;26570;50.962;5.340;2023-08-31T07:09:07;2.58;;;0.50;;
40847;SDS011;26570;50.962;5.340;2023-08-31T07:11:52;2.67;;;0.40;;
40847;SDS011;26570;50.962;5.340;2023-08-31T07:14:41;1.80;;;0.40;;
40847;SDS011;26570;50.962;5.340;2023-08-31T07:17:49;4.78;;;0.50;;
40847;SDS011;26570;50.962;5.340;2023-08-31T07:20:34;4.30;;;0.50;;
40847;SDS011;26570;50.962;5.340;2023-08-31T07:23:19;4.00;;;0.50;;
40847;SDS011;26570;50.962;5.340;2023-08-31T07:26:04;3.67;;;0.50;;
40847;SDS011;26570;50.962;5.340;2023-08-31T07:28:50;2.28;;;0.40;;
40847;SDS011;26570;50.962;5.340;2023-08-31T07:31:37;4.10;;;0.55;;
40847;SDS011;26570;50.962;5.340;2023-08-31T07:34:44;3.13;;;0.50;;
40847;SDS011;26570;50.962;5.340;2023-08-31T07:37:29;3.40;;;0.70;;
40847;SDS011;26570;50.962;5.340;2023-08-31T07:40:15;4.88;;;0.63;;
40847;SDS011;26570;50.962;5.340;2023-08-31T07:43:22;3.25;;;0.60;;
40847;SDS011;26570;50.962;5.340;2023-08-31T07:46:09;6.20;;;0.65;;
40847;SDS011;26570;50.962;5.340;2023-08-31T07:48:54;3.85;;;0.50;;
40847;SDS011;26570;50.962;5.340;2023-08-31T07:51:39;4.30;;;0.63;;
40847;SDS011;26570;50.962;5.340;2023-08-31T07:54:24;7.65;;;0.55;;
40847;SDS011;26570;50.962;5.340;2023-08-31T07:57:10;4.88;;;0.60;;
40847;SDS011;26570;50.962;5.340;2023-08-31T07:59:55;4.90;;;0.60;;
40847;SDS011;26570;50.962;5.340;2023-08-31T08:02:41;3.63;;;0.60;;
40847;SDS011;26570;50.962;5.340;2023-08-31T08:05:27;12.15;;;0.70;;
40847;SDS011;26570;50.962;5.340;2023-08-31T08:08:12;7.47;;;0.80;;
40847;SDS011;26570;50.962;5.340;2023-08-31T08:10:58;6.35;;;0.70;;
40847;SDS011;26570;50.962;5.340;2023-08-31T08:13:44;5.75;;;0.70;;
40847;SDS011;26570;50.962;5.340;2023-08-31T08:16:29;5.68;;;0.60;;
40847;SDS011;26570;50.962;5.340;2023-08-31T08:19:20;6.03;;;0.63;;
40847;SDS011;26570;50.962;5.340;2023-08-31T08:22:07;6.82;;;0.60;;
40847;SDS011;26570;50.962;5.340;2023-08-31T08:24:53;4.78;;;0.70;;
40847;SDS011;26570;50.962;5.340;2023-08-31T08:27:39;8.20;;;0.80;;
40847;SDS011;26570;50.962;5.340;2023-08-31T08:30:26;5.90;;;1.25;;
40847;SDS011;26570;50.962;5.340;2023-08-31T08:33:36;6.28;;;0.65;;
40847;SDS011;26570;50.962;5.340;2023-08-31T08:36:21;6.50;;;0.70;;
40847;SDS011;26570;50.962;5.340;2023-08-31T08:39:08;7.15;;;0.60;;
40847;SDS011;26570;50.962;5.340;2023-08-31T08:42:17;7.65;;;0.60;;
40847;SDS011;26570;50.962;5.340;2023-08-31T08:45:04;6.18;;;0.60;;
40847;SDS011;26570;50.962;5.340;2023-08-31T08:47:53;4.68;;;0.65;;
40847;SDS011;26570;50.962;5.340;2023-08-31T08:50:39;4.05;;;0.60;;
40847;SDS011;26570;50.962;5.340;2023-08-31T08:53:48;4.78;;;0.70;;
40847;SDS011;26570;50.962;5.340;2023-08-31T08:56:36;5.40;;;0.60;;
40847;SDS011;26570;50.962;5.340;2023-08-31T08:59:24;3.72;;;0.77;;
40847;SDS011;26570;50.962;5.340;2023-08-31T09:02:10;5.28;;;0.85;;
40847;SDS011;26570;50.962;5.340;2023-08-31T09:04:56;4.45;;;0.80;;
40847;SDS011;26570;50.962;5.340;2023-08-31T09:10:46;9.20;;;1.10;;
40847;SDS011;26570;50.962;5.340;2023-08-31T09:13:36;4.55;;;0.90;;
40847;SDS011;26570;50.962;5.340;2023-08-31T09:16:28;7.53;;;0.75;;
40847;SDS011;26570;50.962;5.340;2023-08-31T09:19:22;7.93;;;0.90;;
40847;SDS011;26570;50.962;5.340;2023-08-31T09:22:10;6.07;;;0.70;;
40847;SDS011;26570;50.962;5.340;2023-08-31T09:24:55;7.47;;;0.80;;
40847;SDS011;26570;50.962;5.340;2023-08-31T09:27:41;7.55;;;1.83;;
40847;SDS011;26570;50.962;5.340;2023-08-31T09:30:34;4.88;;;0.82;;
40847;SDS011;26570;50.962;5.340;2023-08-31T09:33:20;5.22;;;0.80;;
40847;SDS011;26570;50.962;5.340;2023-08-31T09:36:08;3.67;;;0.90;;
40847;SDS011;26570;50.962;5.340;2023-08-31T09:38:58;6.78;;;0.90;;
40847;SDS011;26570;50.962;5.340;2023-08-31T09:41:55;5.50;;;0.80;;
40847;SDS011;26570;50.962;5.340;2023-08-31T09:44:44;3.05;;;0.65;;
40847;SDS011;26570;50.962;5.340;2023-08-31T09:47:30;9.23;;;0.70;;
40847;SDS011;26570;50.962;5.340;2023-08-31T09:50:18;4.82;;;0.60;;
40847;SDS011;26570;50.962;5.340;2023-08-31T09:56:05;7.18;;;0.93;;
40847;SDS011;26570;50.962;5.340;2023-08-31T09:58:51;5.25;;;0.80;;
40847;SDS011;26570;50.962;5.340;2023-08-31T10:01:42;3.97;;;0.57;;
40847;SDS011;26570;50.962;5.340;2023-08-31T10:04:30;4.38;;;0.65;;
40847;SDS011;26570;50.962;5.340;2023-08-31T10:07:22;4.32;;;0.50;;
40847;SDS011;26570;50.962;5.340;2023-08-31T10:10:09;3.00;;;0.52;;
40847;SDS011;26570;50.962;5.340;2023-08-31T10:12:59;7.15;;;0.60;;
40847;SDS011;26570;50.962;5.340;2023-08-31T10:15:46;5.15;;;0.70;;
40847;SDS011;26570;50.962;5.340;2023-08-31T10:18:37;4.55;;;0.70;;
40847;SDS011;26570;50.962;5.340;2023-08-31T10:21:23;4.13;;;0.68;;
40847;SDS011;26570;50.962;5.340;2023-08-31T10:24:15;3.88;;;0.63;;
40847;SDS011;26570;50.962;5.340;2023-08-31T10:27:17;4.70;;;0.85;;
40847;SDS011;26570;50.962;5.340;2023-08-31T10:30:46;3.38;;;0.60;;
40847;SDS011;26570;50.962;5.340;2023-08-31T10:36:02;4.15;;;1.10;;
40847;SDS011;26570;50.962;5.340;2023-08-31T10:41:53;6.32;;;0.70;;
40847;SDS011;26570;50.962;5.340;2023-08-31T10:44:47;6.85;;;0.70;;
40847;SDS011;26570;50.962;5.340;2023-08-31T10:47:41;9.48;;;0.50;;
40847;SDS011;26570;50.962;5.340;2023-08-31T10:50:29;2.97;;;0.32;;
40847;SDS011;26570;50.962;5.340;2023-08-31T10:54:11;3.78;;;0.30;;
40847;SDS011;26570;50.962;5.340;2023-08-31T11:01:05;4.72;;;0.35;;
40847;SDS011;26570;50.962;5.340;2023-08-31T11:03:59;2.35;;;0.40;;
40847;SDS011;26570;50.962;5.340;2023-08-31T11:06:45;4.55;;;0.40;;
40847;SDS011;26570;50.962;5.340;2023-08-31T11:09:32;3.10;;;0.40;;
40847;SDS011;26570;50.962;5.340;2023-08-31T11:12:21;5.72;;;0.40;;
40847;SDS011;26570;50.962;5.340;2023-08-31T11:15:11;3.80;;;1.23;;
40847;SDS011;26570;50.962;5.340;2023-08-31T11:21:05;3.50;;;0.40;;
40847;SDS011;26570;50.962;5.340;2023-08-31T11:23:51;3.72;;;0.30;;
40847;SDS011;26570;50.962;5.340;2023-08-31T11:26:42;3.47;;;0.40;;
40847;SDS011;26570;50.962;5.340;2023-08-31T11:29:28;3.72;;;0.63;;
40847;SDS011;26570;50.962;5.340;2023-08-31T11:32:14;3.13;;;0.40;;
40847;SDS011;26570;50.962;5.340;2023-08-31T11:35:00;2.05;;;0.50;;
40847;SDS011;26570;50.962;5.340;2023-08-31T11:37:51;2.00;;;0.30;;
40847;SDS011;26570;50.962;5.340;2023-08-31T11:40:43;2.83;;;0.40;;
40847;SDS011;26570;50.962;5.340;2023-08-31T11:43:32;2.15;;;0.30;;
40847;SDS011;26570;50.962;5.340;2023-08-31T11:46:18;3.20;;;0.30;;
40847;SDS011;26570;50.962;5.340;2023-08-31T11:49:04;1.48;;;0.30;;
40847;SDS011;26570;50.962;5.340;2023-08-31T11:51:50;4.88;;;0.32;;
40847;SDS011;26570;50.962;5.340;2023-08-31T11:54:39;2.10;;;0.30;;
40847;SDS011;26570;50.962;5.340;2023-08-31T11:57:48;1.80;;;0.30;;
40847;SDS011;26570;50.962;5.340;2023-08-31T12:00:38;3.88;;;0.32;;
40847;SDS011;26570;50.962;5.340;2023-08-31T12:03:25;6.43;;;0.40;;
40847;SDS011;26570;50.962;5.340;2023-08-31T12:06:14;3.70;;;0.30;;
40847;SDS011;26570;50.962;5.340;2023-08-31T12:09:04;6.60;;;0.40;;
40847;SDS011;26570;50.962;5.340;2023-08-31T12:12:01;2.22;;;0.20;;
40847;SDS011;26570;50.962;5.340;2023-08-31T12:15:01;3.83;;;0.40;;
40847;SDS011;26570;50.962;5.340;2023-08-31T12:17:50;1.95;;;0.40;;
40847;SDS011;26570;50.962;5.340;2023-08-31T12:20:55;7.93;;;0.40;;
40847;SDS011;26570;50.962;5.340;2023-08-31T12:23:42;4.65;;;0.40;;
40847;SDS011;26570;50.962;5.340;2023-08-31T12:26:34;3.67;;;0.40;;
40847;SDS011;26570;50.962;5.340;2023-08-31T12:32:58;3.47;;;0.50;;
40847;SDS011;26570;50.962;5.340;2023-08-31T12:35:45;4.03;;;0.43;;
40847;SDS011;26570;50.962;5.340;2023-08-31T12:38:31;2.75;;;0.30;;
40847;SDS011;26570;50.962;5.340;2023-08-31T12:41:17;3.45;;;0.40;;
40847;SDS011;26570;50.962;5.340;2023-08-31T12:44:04;5.85;;;0.45;;
40847;SDS011;26570;50.962;5.340;2023-08-31T12:46:52;2.85;;;0.30;;
40847;SDS011;26570;50.962;5.340;2023-08-31T12:49:39;1.30;;;0.30;;
40847;SDS011;26570;50.962;5.340;2023-08-31T12:52:30;4.30;;;0.40;;
40847;SDS011;26570;50.962;5.340;2023-08-31T12:55:16;2.63;;;0.30;;
40847;SDS011;26570;50.962;5.340;2023-08-31T12:58:02;2.40;;;0.40;;
40847;SDS011;26570;50.962;5.340;2023-08-31T13:00:47;5.57;;;0.40;;
40847;SDS011;26570;50.962;5.340;2023-08-31T13:03:36;2.22;;;0.40;;
40847;SDS011;26570;50.962;5.340;2023-08-31T13:06:22;4.05;;;0.40;;
40847;SDS011;26570;50.962;5.340;2023-08-31T13:09:10;6.60;;;0.40;;
40847;SDS011;26570;50.962;5.340;2023-08-31T13:12:05;3.17;;;0.40;;
40847;SDS011;26570;50.962;5.340;2023-08-31T13:14:52;1.75;;;0.38;;
40847;SDS011;26570;50.962;5.340;2023-08-31T13:17:41;3.25;;;0.40;;
40847;SDS011;26570;50.962;5.340;2023-08-31T13:20:27;7.97;;;0.40;;
40847;SDS011;26570;50.962;5.340;2023-08-31T13:23:14;6.75;;;0.40;;
40847;SDS011;26570;50.962;5.340;2023-08-31T13:25:59;2.05;;;0.30;;
40847;SDS011;26570;50.962;5.340;2023-08-31T13:28:44;2.83;;;0.30;;
40847;SDS011;26570;50.962;5.340;2023-08-31T13:31:29;2.40;;;0.85;;
40847;SDS011;26570;50.962;5.340;2023-08-31T13:34:17;6.22;;;0.40;;
40847;SDS011;26570;50.962;5.340;2023-08-31T13:37:10;3.30;;;0.47;;
40847;SDS011;26570;50.962;5.340;2023-08-31T13:39:57;3.63;;;0.30;;
40847;SDS011;26570;50.962;5.340;2023-08-31T13:43:28;4.53;;;0.40;;
40847;SDS011;26570;50.962;5.340;2023-08-31T13:46:17;2.45;;;0.30;;
40847;SDS011;26570;50.962;5.340;2023-08-31T13:49:02;2.85;;;0.30;;
40847;SDS011;26570;50.962;5.340;2023-08-31T13:51:48;2.90;;;0.47;;
40847;SDS011;26570;50.962;5.340;2023-08-31T13:54:33;3.08;;;0.40;;
40847;SDS011;26570;50.962;5.340;2023-08-31T13:57:18;2.55;;;0.40;;
40847;SDS011;26570;50.962;5.340;2023-08-31T14:00:04;6.55;;;0.30;;
40847;SDS011;26570;50.962;5.340;2023-08-31T14:02:53;2.83;;;0.30;;
40847;SDS011;26570;50.962;5.340;2023-08-31T14:05:38;3.40;;;0.30;;
40847;SDS011;26570;50.962;5.340;2023-08-31T14:08:25;5.15;;;0.40;;
40847;SDS011;26570;50.962;5.340;2023-08-31T14:11:10;3.53;;;0.32;;
40847;SDS011;26570;50.962;5.340;2023-08-31T14:14:02;7.57;;;0.40;;
40847;SDS011;26570;50.962;5.340;2023-08-31T14:16:49;2.50;;;0.30;;
40847;SDS011;26570;50.962;5.340;2023-08-31T14:19:34;2.88;;;0.40;;
40847;SDS011;26570;50.962;5.340;2023-08-31T14:22:20;2.50;;;0.38;;
40847;SDS011;26570;50.962;5.340;2023-08-31T14:25:07;2.15;;;0.40;;
40847;SDS011;26570;50.962;5.340;2023-08-31T14:27:53;1.92;;;0.30;;
40847;SDS011;26570;50.962;5.340;2023-08-31T14:30:38;3.75;;;0.50;;
40847;SDS011;26570;50.962;5.340;2023-08-31T14:33:35;5.22;;;0.30;;
40847;SDS011;26570;50.962;5.340;2023-08-31T14:36:21;2.67;;;0.30;;
40847;SDS011;26570;50.962;5.340;2023-08-31T14:39:06;2.97;;;0.30;;
40847;SDS011;26570;50.962;5.340;2023-08-31T14:42:05;2.45;;;0.30;;
40847;SDS011;26570;50.962;5.340;2023-08-31T14:44:51;1.38;;;0.30;;
40847;SDS011;26570;50.962;5.340;2023-08-31T14:47:37;2.38;;;0.20;;
40847;SDS011;26570;50.962;5.340;2023-08-31T14:50:22;2.72;;;0.30;;
40847;SDS011;26570;50.962;5.340;2023-08-31T14:53:07;5.18;;;0.93;;
40847;SDS011;26570;50.962;5.340;2023-08-31T14:55:52;2.92;;;0.40;;
40847;SDS011;26570;50.962;5.340;2023-08-31T14:58:46;3.40;;;0.35;;
40847;SDS011;26570;50.962;5.340;2023-08-31T15:01:31;3.05;;;0.50;;
40847;SDS011;26570;50.962;5.340;2023-08-31T15:04:23;4.40;;;0.30;;
40847;SDS011;26570;50.962;5.340;2023-08-31T15:07:08;5.50;;;0.52;;
40847;SDS011;26570;50.962;5.340;2023-08-31T15:10:20;2.42;;;0.40;;
40847;SDS011;26570;50.962;5.340;2023-08-31T15:16:34;4.97;;;0.40;;
40847;SDS011;26570;50.962;5.340;2023-08-31T15:19:27;4.30;;;0.40;;
40847;SDS011;26570;50.962;5.340;2023-08-31T15:22:13;2.13;;;0.45;;
40847;SDS011;26570;50.962;5.340;2023-08-31T15:25:08;2.28;;;0.40;;
40847;SDS011;26570;50.962;5.340;2023-08-31T15:28:00;2.88;;;0.45;;
40847;SDS011;26570;50.962;5.340;2023-08-31T15:30:48;3.47;;;0.43;;
40847;SDS011;26570;50.962;5.340;2023-08-31T15:33:34;3.67;;;0.50;;
40847;SDS011;26570;50.962;5.340;2023-08-31T15:36:35;4.05;;;0.60;;
40847;SDS011;26570;50.962;5.340;2023-08-31T15:39:30;3.10;;;0.50;;
40847;SDS011;26570;50.962;5.340;2023-08-31T15:42:27;1.73;;;0.50;;
40847;SDS011;26570;50.962;5.340;2023-08-31T15:45:13;4.80;;;0.40;;
40847;SDS011;26570;50.962;5.340;2023-08-31T15:47:59;6.95;;;0.47;;
40847;SDS011;26570;50.962;5.340;2023-08-31T15:50:54;5.45;;;0.57;;
40847;SDS011;26570;50.962;5.340;2023-08-31T15:53:43;3.70;;;0.40;;
40847;SDS011;26570;50.962;5.340;2023-08-31T15:56:51;4.65;;;0.85;;
40847;SDS011;26570;50.962;5.340;2023-08-31T15:59:46;7.00;;;0.65;;
40847;SDS011;26570;50.962;5.340;2023-08-31T16:02:45;3.15;;;0.45;;
40847;SDS011;26570;50.962;5.340;2023-08-31T16:05:38;5.28;;;0.50;;
40847;SDS011;26570;50.962;5.340;2023-08-31T16:08:24;4.20;;;0.50;;
40847;SDS011;26570;50.962;5.340;2023-08-31T16:11:22;6.57;;;0.57;;
40847;SDS011;26570;50.962;5.340;2023-08-31T16:14:30;8.10;;;0.52;;
40847;SDS011;26570;50.962;5.340;2023-08-31T16:17:23;4.28;;;0.60;;
40847;SDS011;26570;50.962;5.340;2023-08-31T16:20:18;9.55;;;0.52;;
40847;SDS011;26570;50.962;5.340;2023-08-31T16:23:07;3.50;;;0.50;;
40847;SDS011;26570;50.962;5.340;2023-08-31T16:26:03;4.97;;;0.43;;
40847;SDS011;26570;50.962;5.340;2023-08-31T16:28:51;6.97;;;0.50;;
40847;SDS011;26570;50.962;5.340;2023-08-31T16:31:43;5.47;;;0.40;;
40847;SDS011;26570;50.962;5.340;2023-08-31T16:34:45;5.10;;;0.50;;
40847;SDS011;26570;50.962;5.340;2023-08-31T16:37:36;2.72;;;0.40;;
40847;SDS011;26570;50.962;5.340;2023-08-31T16:40:42;5.78;;;0.40;;
40847;SDS011;26570;50.962;5.340;2023-08-31T16:44:21;7.35;;;0.45;;
40847;SDS011;26570;50.962;5.340;2023-08-31T16:47:13;2.92;;;0.38;;
40847;SDS011;26570;50.962;5.340;2023-08-31T16:50:30;4.88;;;0.45;;
40847;SDS011;26570;50.962;5.340;2023-08-31T16:53:39;3.15;;;0.40;;
40847;SDS011;26570;50.962;5.340;2023-08-31T16:56:50;4.20;;;0.40;;
40847;SDS011;26570;50.962;5.340;2023-08-31T16:59:57;6.35;;;0.98;;
40847;SDS011;26570;50.962;5.340;2023-08-31T17:02:51;4.00;;;0.52;;
40847;SDS011;26570;50.962;5.340;2023-08-31T17:05:40;5.07;;;0.50;;
40847;SDS011;26570;50.962;5.340;2023-08-31T17:08:33;7.85;;;0.70;;
40847;SDS011;26570;50.962;5.340;2023-08-31T17:11:21;8.50;;;0.60;;
40847;SDS011;26570;50.962;5.340;2023-08-31T17:14:10;4.15;;;0.50;;
40847;SDS011;26570;50.962;5.340;2023-08-31T17:17:01;4.75;;;0.60;;
40847;SDS011;26570;50.962;5.340;2023-08-31T17:19:51;6.38;;;0.50;;
40847;SDS011;26570;50.962;5.340;2023-08-31T17:22:39;5.25;;;0.60;;
40847;SDS011;26570;50.962;5.340;2023-08-31T17:25:27;6.82;;;0.50;;
40847;SDS011;26570;50.962;5.340;2023-08-31T17:28:42;2.77;;;0.50;;
40847;SDS011;26570;50.962;5.340;2023-08-31T17:31:29;5.47;;;0.50;;
40847;SDS011;26570;50.962;5.340;2023-08-31T17:34:39;4.60;;;0.40;;
40847;SDS011;26570;50.962;5.340;2023-08-31T17:37:49;7.80;;;0.60;;
40847;SDS011;26570;50.962;5.340;2023-08-31T17:40:42;8.23;;;0.80;;
40847;SDS011;26570;50.962;5.340;2023-08-31T17:43:33;4.50;;;0.40;;